Boynton Beach, FL (33435)

2:40 PM EDT on March 27, 2017 (GMT -0400)
Ocean Ridge | | Change Station

Elev 0 ft 26.53 °N, 80.05 °W | Updated 13 seconds ago

Partly Cloudy
Partly Cloudy
88.9 °F
Feels Like 91 °F
N
0.0
Wind Variable Wind from East
Gusts 1.3 mph

Today
High -- | Low -- °F
--% Chance of Precip.
Yesterday
High -- | Low -- °F
Precip. -- in
Pressure 30.09 in
Visibility 10.0 miles
Clouds Scattered Clouds 3600 ft
Scattered Clouds 25000 ft
Heat Index 91 °F
Dew Point 66 °F
Humidity 46%
Rainfall 0.04 in
Snow Depth Not available.
7:16 AM 7:35 PM
Waning Crescent, 0% visible
METAR KPBI 271753Z 10007G15KT 10SM SCT036 SCT250 24/14 A3009 RMK AO2 SLP189 T02440144 10261 20217 58008
Pressure 30.09 in
Visibility 10.0 miles
Clouds Scattered Clouds 3600 ft
Scattered Clouds 25000 ft
Heat Index 91 °F
Dew Point 66 °F
Humidity 46%
Rainfall 0.04 in
Snow Depth Not available.
7:16 AM 7:35 PM
Waning Crescent, 0% visible
METAR KPBI 271753Z 10007G15KT 10SM SCT036 SCT250 24/14 A3009 RMK AO2 SLP189 T02440144 10261 20217 58008

Get Severe Weather Alerts

Thanks for signing up!

Be on the lookout for a verification email in your inbox.

You'll start receiving the daily forecast at 8 AM.

×

10-Day Weather Forecast

Almanac

Astronomy

Mar. 27, 2017 Rise Set
Actual Time
Civil Twilight
Nautical Twilight
Astronomical Twilight
Moon
Length of Visible Light
Length of Day
Tomorrow will be .
, % of the Moon is Illuminated

Today's Extremes

State Highs State Lows

Community

WunderPhotos

Upload Photos

1,962,540 photos uploaded!

WunderBlog® & News

Nearby

Air Quality

  Air Quality AQ Index Pollutant
Not available.

Snow Depth

Station Depth Elevation

Earthquake Activity

City Distance Mag. Time & Date
Minimum magnitude displayed is 2.5.

Earthquake Activity

City Distance Mag. Time & Date
Minimum magnitude displayed is 2.5.

Coastal Water Temperatures

Place Temperature

Stations

Nearby Weather Stations

Station Location Temp. Windchill Dew Point Humidity Wind Precip. Elev Updated Type
                   

Watches & Warnings

There are currently no watches in effect.